Maple Lake, MN

10:21 AM CDT on October 17, 2017 (GMT -0500)
Maple Lake Municipal

Weather History for KMGG - April, 2013

Change the Weather History Date:

Tuesday, April 9, 2013

  Actual Average (KSTC) Record (KSTC)
Temperature  
Mean Temperature 36 °F -  
Max Temperature 42 °F 48 °F 79 °F (1930)
Min Temperature 32 °F 28 °F 13 °F (2016)
Degree Days  
Heating Degree Days 28    
Moisture  
Dew Point 28 °F    
Average Humidity 73    
Maximum Humidity 88    
Minimum Humidity 57    
Precipitation  
Precipitation 0.00 in - - ()
Sea Level Pressure  
Sea Level Pressure 30.09 in    
Wind  
Wind Speed 11 mph (NNE)    
Max Wind Speed 22 mph    
Max Gust Speed 29 mph    
Visibility 10 miles    
Events Rain , Snow    
Averages and records for this station are not official NWS values.
T = Trace of Precipitation, MM = Missing Value Source: NWS Daily Summary

Daily Weather History Graph

Daily Weather History Graph

Search for Another Location

Airport or City:

Trip Planner

Search our weather history database for the weather conditions in past years. The results will help you decide how hot, cold, wet, or windy it might be!

Date:

Astronomy

Apr. 09, 2013 Rise Set
Actual Time 6:41 AM CDT 7:54 PM CDT
Civil Twilight 6:10 AM CDT 8:24 PM CDT
Nautical Twilight 5:34 AM CDT 9:01 PM CDT
Astronomical Twilight 4:55 AM CDT 9:40 PM CDT
Moon 6:05 AM CDT (4/9) 7:31 PM CDT (4/9)
Length of Visible Light 14h 14m
Length of Day
13h 13m
Waning Crescent, 1% of the Moon is Illuminated
Apr 9
Waning Crescent
Apr 10
New
Apr 18
First Quarter
Apr 25
Full
May 2
Last Quarter

Hourly Weather History & Observations

Time (CDT) Temp. Windchill Dew Point Humidity Pressure Visibility Wind Dir Wind Speed Gust Speed Precip Events Conditions
12:16 AM 37.8 °F 32.5 °F 34.2 °F 87% 30.07 in 10.0 mi North 6.9 mph - N/A   Mostly Cloudy
12:36 AM 37.6 °F 31.0 °F 34.2 °F 87% 30.05 in 10.0 mi North 9.2 mph - N/A   Overcast
12:56 AM 37.4 °F 32.8 °F 33.8 °F 87% 30.05 in 10.0 mi North 5.8 mph - N/A   Mostly Cloudy
1:16 AM 37.0 °F 31.0 °F 33.8 °F 88% 30.05 in 10.0 mi NNE 8.1 mph - N/A   Overcast
1:36 AM 37.4 °F 30.8 °F 33.8 °F 87% 30.04 in 10.0 mi NNE 9.2 mph - N/A   Overcast
1:56 AM 37.6 °F 30.5 °F 33.3 °F 84% 30.06 in 10.0 mi NNE 10.4 mph - N/A   Overcast
2:16 AM 37.4 °F 29.3 °F 32.9 °F 84% 30.05 in 10.0 mi NNE 12.7 mph - N/A   Overcast
2:35 AM 37.0 °F 32.4 °F 33.1 °F 86% 30.05 in 10.0 mi North 5.8 mph - N/A   Overcast
2:56 AM 36.9 °F 29.6 °F 32.9 °F 86% 30.04 in 10.0 mi North 10.4 mph - N/A   Overcast
3:16 AM 36.5 °F 27.8 °F 32.9 °F 87% 30.02 in 10.0 mi North 13.8 mph 18.4 mph N/A   Overcast
3:36 AM 36.1 °F 28.2 °F 32.5 °F 87% 30.03 in 10.0 mi North 11.5 mph 19.6 mph N/A   Overcast
3:56 AM 36.0 °F 28.5 °F 32.4 °F 87% 30.04 in 10.0 mi North 10.4 mph - N/A   Overcast
4:16 AM 36.0 °F 28.5 °F 32.0 °F 86% 30.06 in 10.0 mi North 10.4 mph - N/A   Overcast
4:36 AM 35.8 °F 30.1 °F 32.0 °F 86% 30.08 in 10.0 mi NNE 6.9 mph - N/A   Overcast
4:55 AM 36.0 °F 28.5 °F 32.0 °F 86% 30.08 in 10.0 mi NNE 10.4 mph - N/A   Overcast
5:16 AM 35.6 °F 27.1 °F 31.5 °F 85% 30.07 in 10.0 mi North 12.7 mph 17.3 mph N/A   Overcast
5:36 AM 34.7 °F 25.5 °F 29.8 °F 82% 30.07 in 10.0 mi North 13.8 mph 19.6 mph N/A   Overcast
5:55 AM 34.2 °F 25.2 °F 29.1 °F 82% 30.07 in 10.0 mi North 12.7 mph 19.6 mph N/A   Overcast
6:16 AM 33.8 °F 24.8 °F 28.2 °F 80% 30.07 in 10.0 mi North 12.7 mph 19.6 mph N/A   Overcast
6:36 AM 33.3 °F 25.1 °F 27.5 °F 79% 30.08 in 10.0 mi North 10.4 mph 18.4 mph N/A   Overcast
6:56 AM 32.9 °F 23.2 °F 27.3 °F 80% 30.08 in 10.0 mi North 13.8 mph 21.9 mph N/A   Overcast
7:16 AM 32.4 °F 22.5 °F 27.0 °F 80% 30.07 in 10.0 mi North 13.8 mph 21.9 mph N/A   Overcast
7:36 AM 32.0 °F 21.6 °F 27.5 °F 83% 30.08 in 10.0 mi North 15.0 mph 19.6 mph N/A   Overcast
7:55 AM 32.0 °F 22.5 °F 27.5 °F 83% 30.09 in 10.0 mi North 12.7 mph - N/A   Overcast
8:16 AM 32.0 °F 23.6 °F 27.1 °F 82% 30.09 in 10.0 mi North 10.4 mph - N/A   Overcast
8:36 AM 32.0 °F 23.0 °F 26.6 °F 80% 30.08 in 10.0 mi North 11.5 mph 16.1 mph N/A   Overcast
8:56 AM 32.0 °F 23.6 °F 26.6 °F 80% 30.08 in 10.0 mi North 10.4 mph 17.3 mph N/A   Overcast
9:16 AM 32.0 °F 22.5 °F 26.2 °F 79% 30.08 in 10.0 mi North 12.7 mph 18.4 mph N/A   Overcast
9:36 AM 32.0 °F 21.2 °F 26.2 °F 79% 30.08 in 10.0 mi North 16.1 mph 19.6 mph N/A   Overcast
9:56 AM 32.0 °F 22.1 °F 25.9 °F 78% 30.09 in 10.0 mi North 13.8 mph 18.4 mph N/A   Overcast
10:16 AM 32.0 °F 22.1 °F 25.5 °F 77% 30.09 in 10.0 mi North 13.8 mph - N/A   Overcast
10:36 AM 32.0 °F 20.8 °F 25.5 °F 77% 30.10 in 10.0 mi North 17.3 mph 20.7 mph N/A   Overcast
10:56 AM 32.0 °F 23.0 °F 25.2 °F 76% 30.11 in 10.0 mi North 11.5 mph 21.9 mph N/A   Overcast
11:16 AM 32.0 °F 23.6 °F 25.2 °F 76% 30.13 in 10.0 mi North 10.4 mph 17.3 mph N/A   Overcast
11:36 AM 32.0 °F 21.6 °F 25.2 °F 76% 30.14 in 10.0 mi North 15.0 mph 20.7 mph N/A   Overcast
11:56 AM 32.2 °F 23.8 °F 25.3 °F 76% 30.14 in 10.0 mi North 10.4 mph - N/A   Overcast
12:16 PM 32.2 °F 21.8 °F 25.0 °F 75% 30.13 in 10.0 mi NNE 15.0 mph 20.7 mph N/A   Overcast
12:36 PM 32.9 °F 22.4 °F 25.5 °F 74% 30.11 in 7.0 mi NNE 16.1 mph 21.9 mph N/A Snow Light Snow
12:56 PM 34.0 °F 23.0 °F 25.5 °F 71% 30.10 in 10.0 mi North 18.4 mph 26.5 mph N/A   Mostly Cloudy
1:16 PM 34.3 °F 24.6 °F 25.0 °F 69% 30.11 in 10.0 mi NNE 15.0 mph 25.3 mph N/A   Mostly Cloudy
1:36 PM 35.1 °F 25.9 °F 25.5 °F 68% 30.10 in 10.0 mi North 13.8 mph 21.9 mph N/A   Overcast
1:56 PM 35.8 °F 25.4 °F 26.1 °F 68% 30.09 in 10.0 mi NNE 18.4 mph 25.3 mph N/A   Overcast
2:16 PM 36.1 °F 26.2 °F 25.7 °F 66% 30.08 in 10.0 mi NNE 17.3 mph 21.9 mph N/A   Overcast
2:35 PM 37.2 °F 28.7 °F 27.0 °F 66% 30.07 in 10.0 mi NNE 13.8 mph 25.3 mph N/A   Overcast
2:56 PM 39.9 °F 30.5 °F 27.9 °F 62% 30.06 in 10.0 mi NNE 19.6 mph 28.8 mph N/A   Mostly Cloudy
3:16 PM 41.4 °F 32.4 °F 27.5 °F 58% 30.06 in 10.0 mi NE 19.6 mph 26.5 mph N/A   Scattered Clouds
3:35 PM 41.4 °F 33.3 °F 27.3 °F 57% 30.07 in 10.0 mi NE 16.1 mph 25.3 mph N/A   Mostly Cloudy
3:56 PM 41.2 °F 33.0 °F 27.3 °F 58% 30.07 in 10.0 mi NNE 16.1 mph 19.6 mph N/A   Overcast
4:16 PM 41.0 °F 34.3 °F 27.3 °F 58% 30.08 in 10.0 mi NNE 11.5 mph 20.7 mph N/A   Overcast
4:36 PM 40.3 °F 33.0 °F 26.4 °F 58% 30.10 in 10.0 mi NNE 12.7 mph - N/A   Overcast
4:56 PM 40.1 °F 33.2 °F 26.4 °F 58% 30.10 in 10.0 mi NNE 11.5 mph - N/A   Overcast
5:15 PM 39.6 °F 31.7 °F 26.4 °F 59% 30.10 in 10.0 mi North 13.8 mph 20.7 mph N/A   Overcast
5:36 PM 39.6 °F 32.1 °F 26.8 °F 60% 30.11 in 10.0 mi North 12.7 mph 16.1 mph N/A   Overcast
5:56 PM 39.4 °F 31.4 °F 26.6 °F 60% 30.10 in 10.0 mi North 13.8 mph 20.7 mph N/A   Overcast
6:16 PM 39.4 °F 31.4 °F 26.6 °F 60% 30.09 in 10.0 mi NNE 13.8 mph 18.4 mph N/A   Overcast
6:36 PM 39.4 °F 31.8 °F 26.8 °F 61% 30.09 in 10.0 mi NNE 12.7 mph 18.4 mph N/A   Overcast
6:56 PM 39.2 °F 31.6 °F 26.6 °F 61% 30.10 in 10.0 mi NNE 12.7 mph 17.3 mph N/A   Overcast
7:16 PM 39.2 °F 31.6 °F 26.6 °F 61% 30.10 in 10.0 mi NE 12.7 mph - N/A   Overcast
7:36 PM 39.2 °F 32.0 °F 26.4 °F 60% 30.10 in 10.0 mi NE 11.5 mph 21.9 mph N/A   Overcast
7:56 PM 39.2 °F 30.5 °F 25.7 °F 58% 30.10 in 10.0 mi NE 16.1 mph 21.9 mph N/A   Overcast
8:16 PM 38.7 °F 30.9 °F 25.5 °F 59% 30.09 in 10.0 mi NNE 12.7 mph - N/A   Overcast
8:36 PM 38.5 °F 31.1 °F 25.7 °F 60% 30.09 in 10.0 mi NNE 11.5 mph 19.6 mph N/A   Overcast
8:56 PM 38.3 °F 30.9 °F 25.7 °F 61% 30.08 in 10.0 mi NE 11.5 mph 18.4 mph N/A   Overcast
9:16 PM 38.3 °F 29.7 °F 25.9 °F 61% 30.08 in 10.0 mi NE 15.0 mph 20.7 mph N/A   Overcast
9:35 PM 37.8 °F 29.8 °F 26.4 °F 64% 30.08 in 10.0 mi NE 12.7 mph 19.6 mph N/A Rain Light Rain
9:56 PM 37.4 °F 30.3 °F 27.3 °F 67% 30.09 in 10.0 mi NE 10.4 mph - N/A   Light Drizzle
10:16 PM 37.0 °F 30.4 °F 27.9 °F 69% 30.10 in 10.0 mi NE 9.2 mph - N/A Rain Light Rain
10:35 PM 37.4 °F 31.4 °F 28.2 °F 69% 30.15 in 10.0 mi NE 8.1 mph - N/A Rain Light Rain
10:56 PM 36.7 °F 28.0 °F 26.6 °F 67% 30.19 in 10.0 mi ENE 13.8 mph - N/A   Overcast
11:16 PM 36.7 °F 30.5 °F 25.9 °F 65% 30.19 in 10.0 mi ENE 8.1 mph - N/A   Overcast
11:36 PM 36.3 °F 25.2 °F 23.5 °F 60% 30.18 in 7.0 mi ENE 21.9 mph 27.6 mph N/A Snow Light Snow
11:56 PM 35.8 °F 28.8 °F 24.1 °F 62% 30.18 in 10.0 mi ENE 9.2 mph - N/A   Overcast